sensor_id;sensor_type;location;lat;lon;timestamp;P1;durP1;ratioP1;P2;durP2;ratioP2
41512;SDS011;27244;59.940;30.280;2023-03-01T00:00:20;23.73;;;18.17;;
41512;SDS011;27244;59.940;30.280;2023-03-01T00:02:48;22.75;;;17.10;;
41512;SDS011;27244;59.940;30.280;2023-03-01T00:05:15;21.92;;;16.95;;
41512;SDS011;27244;59.940;30.280;2023-03-01T00:07:42;24.88;;;16.65;;
41512;SDS011;27244;59.940;30.280;2023-03-01T00:10:10;23.48;;;16.58;;
41512;SDS011;27244;59.940;30.280;2023-03-01T00:12:37;22.10;;;16.80;;
41512;SDS011;27244;59.940;30.280;2023-03-01T00:15:04;25.10;;;17.08;;
41512;SDS011;27244;59.940;30.280;2023-03-01T00:17:32;20.45;;;15.50;;
41512;SDS011;27244;59.940;30.280;2023-03-01T00:20:00;23.42;;;17.05;;
41512;SDS011;27244;59.940;30.280;2023-03-01T00:22:27;22.15;;;15.93;;
41512;SDS011;27244;59.940;30.280;2023-03-01T00:24:54;21.55;;;15.82;;
41512;SDS011;27244;59.940;30.280;2023-03-01T00:27:21;21.05;;;15.90;;
41512;SDS011;27244;59.940;30.280;2023-03-01T00:29:48;19.27;;;14.80;;
41512;SDS011;27244;59.940;30.280;2023-03-01T00:32:15;19.77;;;15.50;;
41512;SDS011;27244;59.940;30.280;2023-03-01T00:34:42;17.85;;;14.20;;
41512;SDS011;27244;59.940;30.280;2023-03-01T00:37:21;18.70;;;14.70;;
41512;SDS011;27244;59.940;30.280;2023-03-01T00:39:48;20.33;;;14.45;;
41512;SDS011;27244;59.940;30.280;2023-03-01T00:42:15;19.98;;;14.82;;
41512;SDS011;27244;59.940;30.280;2023-03-01T00:44:43;18.30;;;14.20;;
41512;SDS011;27244;59.940;30.280;2023-03-01T00:47:10;21.02;;;14.60;;
41512;SDS011;27244;59.940;30.280;2023-03-01T00:49:37;18.02;;;13.65;;
41512;SDS011;27244;59.940;30.280;2023-03-01T00:52:04;20.48;;;14.65;;
41512;SDS011;27244;59.940;30.280;2023-03-01T00:54:32;17.73;;;13.68;;
41512;SDS011;27244;59.940;30.280;2023-03-01T00:56:59;18.65;;;13.52;;
41512;SDS011;27244;59.940;30.280;2023-03-01T00:59:26;19.17;;;13.07;;
41512;SDS011;27244;59.940;30.280;2023-03-01T01:01:53;17.33;;;13.55;;
41512;SDS011;27244;59.940;30.280;2023-03-01T01:04:21;17.30;;;13.15;;
41512;SDS011;27244;59.940;30.280;2023-03-01T01:06:48;21.30;;;13.27;;
41512;SDS011;27244;59.940;30.280;2023-03-01T01:09:15;15.57;;;12.18;;
41512;SDS011;27244;59.940;30.280;2023-03-01T01:11:45;15.90;;;12.48;;
41512;SDS011;27244;59.940;30.280;2023-03-01T01:14:12;15.40;;;11.18;;
41512;SDS011;27244;59.940;30.280;2023-03-01T01:16:39;16.52;;;11.80;;
41512;SDS011;27244;59.940;30.280;2023-03-01T01:19:06;15.55;;;11.98;;
41512;SDS011;27244;59.940;30.280;2023-03-01T01:21:33;14.30;;;11.80;;
41512;SDS011;27244;59.940;30.280;2023-03-01T01:24:02;14.55;;;11.10;;
41512;SDS011;27244;59.940;30.280;2023-03-01T01:26:31;14.15;;;11.32;;
41512;SDS011;27244;59.940;30.280;2023-03-01T01:29:01;14.32;;;11.20;;
41512;SDS011;27244;59.940;30.280;2023-03-01T01:31:30;14.60;;;10.88;;
41512;SDS011;27244;59.940;30.280;2023-03-01T01:33:58;13.80;;;10.35;;
41512;SDS011;27244;59.940;30.280;2023-03-01T01:36:27;13.63;;;10.55;;
41512;SDS011;27244;59.940;30.280;2023-03-01T01:38:55;13.23;;;10.30;;
41512;SDS011;27244;59.940;30.280;2023-03-01T01:41:23;14.55;;;10.20;;
41512;SDS011;27244;59.940;30.280;2023-03-01T01:46:45;14.15;;;10.00;;
41512;SDS011;27244;59.940;30.280;2023-03-01T01:49:25;10.80;;;9.18;;
41512;SDS011;27244;59.940;30.280;2023-03-01T01:52:03;11.77;;;9.25;;
41512;SDS011;27244;59.940;30.280;2023-03-01T01:54:36;13.60;;;9.07;;
41512;SDS011;27244;59.940;30.280;2023-03-01T01:57:10;13.02;;;9.00;;
41512;SDS011;27244;59.940;30.280;2023-03-01T01:59:42;10.40;;;9.18;;
41512;SDS011;27244;59.940;30.280;2023-03-01T02:02:13;10.85;;;8.98;;
41512;SDS011;27244;59.940;30.280;2023-03-01T02:04:41;11.43;;;8.50;;
41512;SDS011;27244;59.940;30.280;2023-03-01T02:07:10;14.93;;;8.63;;
41512;SDS011;27244;59.940;30.280;2023-03-01T02:09:42;10.75;;;8.38;;
41512;SDS011;27244;59.940;30.280;2023-03-01T02:12:13;11.25;;;8.35;;
41512;SDS011;27244;59.940;30.280;2023-03-01T02:14:42;10.38;;;8.48;;
41512;SDS011;27244;59.940;30.280;2023-03-01T02:17:09;8.55;;;7.28;;
41512;SDS011;27244;59.940;30.280;2023-03-01T02:19:43;10.57;;;8.00;;
41512;SDS011;27244;59.940;30.280;2023-03-01T02:22:22;11.35;;;7.53;;
41512;SDS011;27244;59.940;30.280;2023-03-01T02:24:55;7.78;;;6.97;;
41512;SDS011;27244;59.940;30.280;2023-03-01T02:27:33;7.45;;;5.68;;
41512;SDS011;27244;59.940;30.280;2023-03-01T02:30:09;6.35;;;5.00;;
41512;SDS011;27244;59.940;30.280;2023-03-01T02:32:37;6.82;;;4.82;;
41512;SDS011;27244;59.940;30.280;2023-03-01T02:35:08;7.72;;;5.15;;
41512;SDS011;27244;59.940;30.280;2023-03-01T02:37:37;6.20;;;4.07;;
41512;SDS011;27244;59.940;30.280;2023-03-01T02:40:06;5.72;;;3.65;;
41512;SDS011;27244;59.940;30.280;2023-03-01T02:42:40;5.22;;;3.63;;
41512;SDS011;27244;59.940;30.280;2023-03-01T02:45:14;5.82;;;3.30;;
41512;SDS011;27244;59.940;30.280;2023-03-01T02:47:42;4.25;;;3.08;;
41512;SDS011;27244;59.940;30.280;2023-03-01T02:50:11;4.68;;;3.08;;
41512;SDS011;27244;59.940;30.280;2023-03-01T02:52:50;4.57;;;3.00;;
41512;SDS011;27244;59.940;30.280;2023-03-01T02:55:25;3.92;;;2.60;;
41512;SDS011;27244;59.940;30.280;2023-03-01T02:57:53;5.28;;;2.80;;
41512;SDS011;27244;59.940;30.280;2023-03-01T03:00:24;4.18;;;2.50;;
41512;SDS011;27244;59.940;30.280;2023-03-01T03:02:54;4.28;;;2.47;;
41512;SDS011;27244;59.940;30.280;2023-03-01T03:05:24;5.78;;;2.30;;
41512;SDS011;27244;59.940;30.280;2023-03-01T03:07:55;4.00;;;1.90;;
41512;SDS011;27244;59.940;30.280;2023-03-01T03:10:25;5.43;;;2.03;;
41512;SDS011;27244;59.940;30.280;2023-03-01T03:12:55;5.15;;;2.22;;
41512;SDS011;27244;59.940;30.280;2023-03-01T03:15:25;4.25;;;2.45;;
41512;SDS011;27244;59.940;30.280;2023-03-01T03:17:54;2.78;;;1.80;;
41512;SDS011;27244;59.940;30.280;2023-03-01T03:20:22;3.60;;;2.17;;
41512;SDS011;27244;59.940;30.280;2023-03-01T03:22:53;5.25;;;1.70;;
41512;SDS011;27244;59.940;30.280;2023-03-01T03:25:21;4.95;;;2.55;;
41512;SDS011;27244;59.940;30.280;2023-03-01T03:27:50;3.20;;;1.40;;
41512;SDS011;27244;59.940;30.280;2023-03-01T03:30:22;2.20;;;1.67;;
41512;SDS011;27244;59.940;30.280;2023-03-01T03:32:52;3.57;;;1.63;;
41512;SDS011;27244;59.940;30.280;2023-03-01T03:35:20;2.88;;;1.75;;
41512;SDS011;27244;59.940;30.280;2023-03-01T03:37:49;3.92;;;1.75;;
41512;SDS011;27244;59.940;30.280;2023-03-01T03:40:31;2.20;;;1.33;;
41512;SDS011;27244;59.940;30.280;2023-03-01T03:43:00;4.05;;;1.60;;
41512;SDS011;27244;59.940;30.280;2023-03-01T03:45:29;3.08;;;1.70;;
41512;SDS011;27244;59.940;30.280;2023-03-01T03:47:58;4.07;;;1.58;;
41512;SDS011;27244;59.940;30.280;2023-03-01T03:50:25;2.60;;;1.55;;
41512;SDS011;27244;59.940;30.280;2023-03-01T03:52:52;2.58;;;1.30;;
41512;SDS011;27244;59.940;30.280;2023-03-01T03:55:19;2.63;;;1.30;;
41512;SDS011;27244;59.940;30.280;2023-03-01T03:57:47;2.63;;;1.30;;
41512;SDS011;27244;59.940;30.280;2023-03-01T04:00:17;1.92;;;1.33;;
41512;SDS011;27244;59.940;30.280;2023-03-01T04:02:47;2.95;;;1.50;;
41512;SDS011;27244;59.940;30.280;2023-03-01T04:05:16;3.78;;;1.20;;
41512;SDS011;27244;59.940;30.280;2023-03-01T04:07:44;5.25;;;1.30;;
41512;SDS011;27244;59.940;30.280;2023-03-01T04:10:12;2.03;;;1.50;;
41512;SDS011;27244;59.940;30.280;2023-03-01T04:12:40;3.00;;;1.13;;
41512;SDS011;27244;59.940;30.280;2023-03-01T04:15:08;3.53;;;1.13;;
41512;SDS011;27244;59.940;30.280;2023-03-01T04:17:39;1.63;;;1.00;;
41512;SDS011;27244;59.940;30.280;2023-03-01T04:20:09;2.65;;;1.08;;
41512;SDS011;27244;59.940;30.280;2023-03-01T04:22:37;3.05;;;1.10;;
41512;SDS011;27244;59.940;30.280;2023-03-01T04:25:04;2.13;;;1.02;;
41512;SDS011;27244;59.940;30.280;2023-03-01T04:27:32;4.30;;;1.15;;
41512;SDS011;27244;59.940;30.280;2023-03-01T04:29:59;3.47;;;1.00;;
41512;SDS011;27244;59.940;30.280;2023-03-01T04:32:26;2.13;;;0.80;;
41512;SDS011;27244;59.940;30.280;2023-03-01T04:34:53;2.47;;;1.08;;
41512;SDS011;27244;59.940;30.280;2023-03-01T04:37:23;2.38;;;1.10;;
41512;SDS011;27244;59.940;30.280;2023-03-01T04:39:50;2.47;;;1.10;;
41512;SDS011;27244;59.940;30.280;2023-03-01T04:42:17;2.47;;;1.30;;
41512;SDS011;27244;59.940;30.280;2023-03-01T04:44:45;3.40;;;1.20;;
41512;SDS011;27244;59.940;30.280;2023-03-01T04:47:12;4.28;;;1.55;;
41512;SDS011;27244;59.940;30.280;2023-03-01T04:49:39;2.60;;;1.10;;
41512;SDS011;27244;59.940;30.280;2023-03-01T04:52:06;2.47;;;1.40;;
41512;SDS011;27244;59.940;30.280;2023-03-01T04:54:35;5.32;;;1.33;;
41512;SDS011;27244;59.940;30.280;2023-03-01T04:57:03;2.28;;;1.20;;
41512;SDS011;27244;59.940;30.280;2023-03-01T04:59:30;3.33;;;1.10;;
41512;SDS011;27244;59.940;30.280;2023-03-01T05:01:57;9.18;;;1.70;;
41512;SDS011;27244;59.940;30.280;2023-03-01T05:04:25;3.03;;;1.60;;
41512;SDS011;27244;59.940;30.280;2023-03-01T05:06:52;2.42;;;1.20;;
41512;SDS011;27244;59.940;30.280;2023-03-01T05:09:19;6.38;;;1.63;;
41512;SDS011;27244;59.940;30.280;2023-03-01T05:11:48;5.57;;;2.00;;
41512;SDS011;27244;59.940;30.280;2023-03-01T05:14:16;4.35;;;1.38;;
41512;SDS011;27244;59.940;30.280;2023-03-01T05:16:43;6.88;;;2.15;;
41512;SDS011;27244;59.940;30.280;2023-03-01T05:19:10;5.20;;;1.70;;
41512;SDS011;27244;59.940;30.280;2023-03-01T05:21:40;5.72;;;1.60;;
41512;SDS011;27244;59.940;30.280;2023-03-01T05:24:21;12.30;;;2.38;;
41512;SDS011;27244;59.940;30.280;2023-03-01T05:26:50;5.55;;;1.60;;
41512;SDS011;27244;59.940;30.280;2023-03-01T05:29:18;6.80;;;1.40;;
41512;SDS011;27244;59.940;30.280;2023-03-01T05:31:50;9.35;;;1.65;;
41512;SDS011;27244;59.940;30.280;2023-03-01T05:34:18;4.45;;;1.20;;
41512;SDS011;27244;59.940;30.280;2023-03-01T05:36:48;3.05;;;1.30;;
41512;SDS011;27244;59.940;30.280;2023-03-01T05:39:18;3.00;;;1.38;;
41512;SDS011;27244;59.940;30.280;2023-03-01T05:41:47;3.63;;;1.13;;
41512;SDS011;27244;59.940;30.280;2023-03-01T05:44:16;2.08;;;1.13;;
41512;SDS011;27244;59.940;30.280;2023-03-01T05:46:42;2.75;;;1.10;;
41512;SDS011;27244;59.940;30.280;2023-03-01T05:49:10;4.07;;;1.17;;
41512;SDS011;27244;59.940;30.280;2023-03-01T05:51:38;2.90;;;1.42;;
41512;SDS011;27244;59.940;30.280;2023-03-01T05:54:05;4.95;;;1.20;;
41512;SDS011;27244;59.940;30.280;2023-03-01T05:56:32;2.00;;;1.20;;
41512;SDS011;27244;59.940;30.280;2023-03-01T05:59:00;3.53;;;1.20;;
41512;SDS011;27244;59.940;30.280;2023-03-01T06:01:28;1.50;;;0.88;;
41512;SDS011;27244;59.940;30.280;2023-03-01T06:03:55;1.67;;;0.95;;
41512;SDS011;27244;59.940;30.280;2023-03-01T06:06:22;3.72;;;1.30;;
41512;SDS011;27244;59.940;30.280;2023-03-01T06:08:50;5.75;;;1.20;;
41512;SDS011;27244;59.940;30.280;2023-03-01T06:11:17;4.70;;;1.25;;
41512;SDS011;27244;59.940;30.280;2023-03-01T06:13:44;3.13;;;1.08;;
41512;SDS011;27244;59.940;30.280;2023-03-01T06:16:11;2.65;;;1.20;;
41512;SDS011;27244;59.940;30.280;2023-03-01T06:18:40;2.45;;;1.23;;
41512;SDS011;27244;59.940;30.280;2023-03-01T06:21:07;3.28;;;1.20;;
41512;SDS011;27244;59.940;30.280;2023-03-01T06:23:35;2.83;;;1.40;;
41512;SDS011;27244;59.940;30.280;2023-03-01T06:26:04;3.05;;;1.20;;
41512;SDS011;27244;59.940;30.280;2023-03-01T06:28:32;3.58;;;1.30;;
41512;SDS011;27244;59.940;30.280;2023-03-01T06:31:00;2.92;;;1.10;;
41512;SDS011;27244;59.940;30.280;2023-03-01T06:33:27;2.75;;;1.20;;
41512;SDS011;27244;59.940;30.280;2023-03-01T06:35:55;2.42;;;0.93;;
41512;SDS011;27244;59.940;30.280;2023-03-01T06:38:22;2.60;;;1.00;;
41512;SDS011;27244;59.940;30.280;2023-03-01T06:40:53;2.50;;;1.00;;
41512;SDS011;27244;59.940;30.280;2023-03-01T06:43:21;2.47;;;0.98;;
41512;SDS011;27244;59.940;30.280;2023-03-01T06:45:49;2.70;;;1.10;;
41512;SDS011;27244;59.940;30.280;2023-03-01T06:48:16;2.63;;;1.15;;
41512;SDS011;27244;59.940;30.280;2023-03-01T06:50:43;3.38;;;1.60;;
41512;SDS011;27244;59.940;30.280;2023-03-01T06:53:11;2.45;;;1.13;;
41512;SDS011;27244;59.940;30.280;2023-03-01T06:55:38;2.70;;;1.25;;
41512;SDS011;27244;59.940;30.280;2023-03-01T06:58:05;3.03;;;1.25;;
41512;SDS011;27244;59.940;30.280;2023-03-01T07:00:32;3.20;;;1.30;;
41512;SDS011;27244;59.940;30.280;2023-03-01T07:02:59;2.47;;;1.30;;
41512;SDS011;27244;59.940;30.280;2023-03-01T07:05:27;2.40;;;1.20;;
41512;SDS011;27244;59.940;30.280;2023-03-01T07:07:55;3.30;;;1.58;;
41512;SDS011;27244;59.940;30.280;2023-03-01T07:10:23;3.55;;;1.55;;
41512;SDS011;27244;59.940;30.280;2023-03-01T07:12:50;3.17;;;0.93;;
41512;SDS011;27244;59.940;30.280;2023-03-01T07:15:20;3.47;;;1.10;;
41512;SDS011;27244;59.940;30.280;2023-03-01T07:17:47;2.92;;;1.20;;
41512;SDS011;27244;59.940;30.280;2023-03-01T07:20:16;3.63;;;0.90;;
41512;SDS011;27244;59.940;30.280;2023-03-01T07:22:43;2.88;;;1.10;;
41512;SDS011;27244;59.940;30.280;2023-03-01T07:25:10;2.40;;;1.20;;
41512;SDS011;27244;59.940;30.280;2023-03-01T07:27:39;2.05;;;0.93;;
41512;SDS011;27244;59.940;30.280;2023-03-01T07:30:06;3.58;;;1.20;;
41512;SDS011;27244;59.940;30.280;2023-03-01T07:32:34;2.88;;;1.00;;
41512;SDS011;27244;59.940;30.280;2023-03-01T07:35:01;2.58;;;1.08;;
41512;SDS011;27244;59.940;30.280;2023-03-01T07:37:28;2.70;;;0.88;;
41512;SDS011;27244;59.940;30.280;2023-03-01T07:39:55;2.92;;;0.80;;
41512;SDS011;27244;59.940;30.280;2023-03-01T07:42:22;3.00;;;1.00;;
41512;SDS011;27244;59.940;30.280;2023-03-01T07:44:51;3.85;;;1.00;;
41512;SDS011;27244;59.940;30.280;2023-03-01T07:47:18;2.22;;;0.95;;
41512;SDS011;27244;59.940;30.280;2023-03-01T07:49:45;1.40;;;0.75;;
41512;SDS011;27244;59.940;30.280;2023-03-01T07:52:12;2.05;;;0.73;;
41512;SDS011;27244;59.940;30.280;2023-03-01T07:54:41;1.95;;;0.80;;
41512;SDS011;27244;59.940;30.280;2023-03-01T07:57:09;1.30;;;0.73;;
41512;SDS011;27244;59.940;30.280;2023-03-01T07:59:36;2.70;;;0.95;;
41512;SDS011;27244;59.940;30.280;2023-03-01T08:02:05;2.92;;;0.90;;
41512;SDS011;27244;59.940;30.280;2023-03-01T08:04:32;3.05;;;0.82;;
41512;SDS011;27244;59.940;30.280;2023-03-01T08:06:58;3.05;;;0.90;;
41512;SDS011;27244;59.940;30.280;2023-03-01T08:09:25;2.17;;;1.00;;
41512;SDS011;27244;59.940;30.280;2023-03-01T08:11:52;2.92;;;0.90;;
41512;SDS011;27244;59.940;30.280;2023-03-01T08:14:20;2.03;;;0.80;;
41512;SDS011;27244;59.940;30.280;2023-03-01T08:16:48;2.25;;;0.73;;
41512;SDS011;27244;59.940;30.280;2023-03-01T08:19:17;6.38;;;1.67;;
41512;SDS011;27244;59.940;30.280;2023-03-01T08:21:44;3.53;;;1.10;;
41512;SDS011;27244;59.940;30.280;2023-03-01T08:24:11;5.97;;;1.13;;
41512;SDS011;27244;59.940;30.280;2023-03-01T08:26:38;1.90;;;0.70;;
41512;SDS011;27244;59.940;30.280;2023-03-01T08:29:05;2.58;;;0.63;;
41512;SDS011;27244;59.940;30.280;2023-03-01T08:31:33;2.45;;;0.90;;
41512;SDS011;27244;59.940;30.280;2023-03-01T08:34:03;1.20;;;0.70;;
41512;SDS011;27244;59.940;30.280;2023-03-01T08:36:34;2.40;;;0.98;;
41512;SDS011;27244;59.940;30.280;2023-03-01T08:39:03;2.25;;;0.80;;
41512;SDS011;27244;59.940;30.280;2023-03-01T08:41:30;2.05;;;0.80;;
41512;SDS011;27244;59.940;30.280;2023-03-01T08:43:57;1.35;;;0.70;;
41512;SDS011;27244;59.940;30.280;2023-03-01T08:46:25;4.10;;;1.23;;
41512;SDS011;27244;59.940;30.280;2023-03-01T08:48:52;2.83;;;0.93;;
41512;SDS011;27244;59.940;30.280;2023-03-01T08:51:20;2.88;;;0.88;;
41512;SDS011;27244;59.940;30.280;2023-03-01T08:53:49;1.35;;;0.70;;
41512;SDS011;27244;59.940;30.280;2023-03-01T08:56:16;2.47;;;0.82;;
41512;SDS011;27244;59.940;30.280;2023-03-01T08:58:44;2.00;;;0.70;;
41512;SDS011;27244;59.940;30.280;2023-03-01T09:01:13;2.13;;;0.45;;
41512;SDS011;27244;59.940;30.280;2023-03-01T09:03:41;1.80;;;0.70;;
41512;SDS011;27244;59.940;30.280;2023-03-01T09:06:09;1.48;;;0.73;;
41512;SDS011;27244;59.940;30.280;2023-03-01T09:08:37;1.80;;;0.65;;
41512;SDS011;27244;59.940;30.280;2023-03-01T09:11:07;1.58;;;0.70;;
41512;SDS011;27244;59.940;30.280;2023-03-01T09:13:36;0.73;;;0.45;;
41512;SDS011;27244;59.940;30.280;2023-03-01T09:16:04;1.38;;;0.70;;
41512;SDS011;27244;59.940;30.280;2023-03-01T09:18:33;2.70;;;0.98;;
41512;SDS011;27244;59.940;30.280;2023-03-01T09:21:01;1.73;;;0.85;;
41512;SDS011;27244;59.940;30.280;2023-03-01T09:23:32;0.98;;;0.60;;
41512;SDS011;27244;59.940;30.280;2023-03-01T09:25:59;2.15;;;0.70;;
41512;SDS011;27244;59.940;30.280;2023-03-01T09:28:28;1.40;;;0.80;;
41512;SDS011;27244;59.940;30.280;2023-03-01T09:30:57;1.52;;;0.65;;
41512;SDS011;27244;59.940;30.280;2023-03-01T09:33:24;1.33;;;0.60;;
41512;SDS011;27244;59.940;30.280;2023-03-01T09:35:55;0.68;;;0.50;;
41512;SDS011;27244;59.940;30.280;2023-03-01T09:38:23;1.75;;;0.63;;
41512;SDS011;27244;59.940;30.280;2023-03-01T09:40:50;1.60;;;0.75;;
41512;SDS011;27244;59.940;30.280;2023-03-01T09:43:18;1.30;;;0.40;;
41512;SDS011;27244;59.940;30.280;2023-03-01T09:45:52;3.85;;;0.80;;
41512;SDS011;27244;59.940;30.280;2023-03-01T09:48:25;1.05;;;0.60;;
41512;SDS011;27244;59.940;30.280;2023-03-01T09:53:26;4.95;;;0.70;;
41512;SDS011;27244;59.940;30.280;2023-03-01T09:56:02;12.57;;;0.90;;
41512;SDS011;27244;59.940;30.280;2023-03-01T09:58:40;1.85;;;0.98;;
41512;SDS011;27244;59.940;30.280;2023-03-01T10:01:27;2.55;;;0.60;;
41512;SDS011;27244;59.940;30.280;2023-03-01T10:04:03;4.00;;;0.70;;
41512;SDS011;27244;59.940;30.280;2023-03-01T10:06:39;1.15;;;0.40;;
41512;SDS011;27244;59.940;30.280;2023-03-01T10:09:16;1.65;;;0.52;;
41512;SDS011;27244;59.940;30.280;2023-03-01T10:11:47;1.73;;;0.70;;
41512;SDS011;27244;59.940;30.280;2023-03-01T10:14:19;1.00;;;0.55;;
41512;SDS011;27244;59.940;30.280;2023-03-01T10:16:58;5.50;;;0.70;;
41512;SDS011;27244;59.940;30.280;2023-03-01T10:19:30;1.50;;;0.50;;
41512;SDS011;27244;59.940;30.280;2023-03-01T10:22:01;1.92;;;0.60;;
41512;SDS011;27244;59.940;30.280;2023-03-01T10:24:34;0.93;;;0.40;;
41512;SDS011;27244;59.940;30.280;2023-03-01T10:27:04;2.90;;;0.40;;
41512;SDS011;27244;59.940;30.280;2023-03-01T10:29:37;1.02;;;0.50;;
41512;SDS011;27244;59.940;30.280;2023-03-01T10:32:13;2.05;;;0.50;;
41512;SDS011;27244;59.940;30.280;2023-03-01T10:34:40;1.30;;;0.50;;
41512;SDS011;27244;59.940;30.280;2023-03-01T10:37:11;1.27;;;0.45;;
41512;SDS011;27244;59.940;30.280;2023-03-01T10:39:54;1.10;;;0.40;;
41512;SDS011;27244;59.940;30.280;2023-03-01T10:42:25;1.05;;;0.60;;
41512;SDS011;27244;59.940;30.280;2023-03-01T10:44:55;1.35;;;0.55;;
41512;SDS011;27244;59.940;30.280;2023-03-01T10:47:25;0.60;;;0.30;;
41512;SDS011;27244;59.940;30.280;2023-03-01T10:49:58;3.85;;;0.50;;
41512;SDS011;27244;59.940;30.280;2023-03-01T10:52:28;1.17;;;0.60;;
41512;SDS011;27244;59.940;30.280;2023-03-01T10:54:58;0.55;;;0.30;;
41512;SDS011;27244;59.940;30.280;2023-03-01T10:57:31;1.38;;;0.43;;
41512;SDS011;27244;59.940;30.280;2023-03-01T11:02:50;0.70;;;0.38;;
41512;SDS011;27244;59.940;30.280;2023-03-01T11:05:28;1.95;;;0.55;;
41512;SDS011;27244;59.940;30.280;2023-03-01T11:07:59;1.13;;;0.43;;
41512;SDS011;27244;59.940;30.280;2023-03-01T11:10:28;1.73;;;0.40;;
41512;SDS011;27244;59.940;30.280;2023-03-01T11:13:05;1.40;;;0.60;;
41512;SDS011;27244;59.940;30.280;2023-03-01T11:15:34;1.08;;;0.60;;
41512;SDS011;27244;59.940;30.280;2023-03-01T11:18:03;1.27;;;0.30;;
41512;SDS011;27244;59.940;30.280;2023-03-01T11:20:32;1.77;;;0.40;;
41512;SDS011;27244;59.940;30.280;2023-03-01T11:23:03;0.52;;;0.30;;
41512;SDS011;27244;59.940;30.280;2023-03-01T11:25:34;0.80;;;0.40;;
41512;SDS011;27244;59.940;30.280;2023-03-01T11:28:07;0.43;;;0.30;;
41512;SDS011;27244;59.940;30.280;2023-03-01T11:30:54;0.52;;;0.35;;
41512;SDS011;27244;59.940;30.280;2023-03-01T11:33:29;0.60;;;0.20;;
41512;SDS011;27244;59.940;30.280;2023-03-01T11:36:03;1.40;;;0.38;;
41512;SDS011;27244;59.940;30.280;2023-03-01T11:38:34;0.63;;;0.28;;
41512;SDS011;27244;59.940;30.280;2023-03-01T11:41:05;0.40;;;0.30;;
41512;SDS011;27244;59.940;30.280;2023-03-01T11:46:11;0.82;;;0.38;;
41512;SDS011;27244;59.940;30.280;2023-03-01T11:48:58;0.90;;;0.30;;
41512;SDS011;27244;59.940;30.280;2023-03-01T11:51:41;0.75;;;0.30;;
41512;SDS011;27244;59.940;30.280;2023-03-01T11:54:15;0.85;;;0.40;;
41512;SDS011;27244;59.940;30.280;2023-03-01T11:57:00;1.05;;;0.30;;
41512;SDS011;27244;59.940;30.280;2023-03-01T11:59:34;2.13;;;0.60;;
41512;SDS011;27244;59.940;30.280;2023-03-01T12:05:15;1.30;;;0.30;;
41512;SDS011;27244;59.940;30.280;2023-03-01T12:07:52;1.02;;;0.40;;
41512;SDS011;27244;59.940;30.280;2023-03-01T12:10:27;0.93;;;0.50;;
41512;SDS011;27244;59.940;30.280;2023-03-01T12:13:01;0.82;;;0.40;;
41512;SDS011;27244;59.940;30.280;2023-03-01T12:15:51;1.35;;;0.40;;
41512;SDS011;27244;59.940;30.280;2023-03-01T12:21:41;0.68;;;0.43;;
41512;SDS011;27244;59.940;30.280;2023-03-01T12:24:28;0.93;;;0.38;;
41512;SDS011;27244;59.940;30.280;2023-03-01T12:27:14;0.68;;;0.40;;
41512;SDS011;27244;59.940;30.280;2023-03-01T12:29:57;0.80;;;0.28;;
41512;SDS011;27244;59.940;30.280;2023-03-01T12:32:35;1.10;;;0.40;;
41512;SDS011;27244;59.940;30.280;2023-03-01T12:38:07;0.95;;;0.35;;
41512;SDS011;27244;59.940;30.280;2023-03-01T12:41:00;0.20;;;0.17;;
41512;SDS011;27244;59.940;30.280;2023-03-01T12:43:41;0.50;;;0.30;;
41512;SDS011;27244;59.940;30.280;2023-03-01T12:46:26;0.50;;;0.35;;
41512;SDS011;27244;59.940;30.280;2023-03-01T12:49:04;0.35;;;0.25;;
41512;SDS011;27244;59.940;30.280;2023-03-01T12:51:35;0.57;;;0.30;;
41512;SDS011;27244;59.940;30.280;2023-03-01T12:54:07;0.50;;;0.30;;
41512;SDS011;27244;59.940;30.280;2023-03-01T12:56:41;1.00;;;0.30;;
41512;SDS011;27244;59.940;30.280;2023-03-01T12:59:17;0.40;;;0.30;;
41512;SDS011;27244;59.940;30.280;2023-03-01T13:01:49;0.45;;;0.30;;
41512;SDS011;27244;59.940;30.280;2023-03-01T13:04:27;0.65;;;0.20;;
41512;SDS011;27244;59.940;30.280;2023-03-01T13:07:05;0.53;;;0.30;;
41512;SDS011;27244;59.940;30.280;2023-03-01T13:09:46;0.40;;;0.22;;
41512;SDS011;27244;59.940;30.280;2023-03-01T13:15:24;0.63;;;0.20;;
41512;SDS011;27244;59.940;30.280;2023-03-01T13:17:53;0.73;;;0.22;;
41512;SDS011;27244;59.940;30.280;2023-03-01T13:20:23;0.40;;;0.25;;
41512;SDS011;27244;59.940;30.280;2023-03-01T13:23:07;0.40;;;0.17;;
41512;SDS011;27244;59.940;30.280;2023-03-01T13:28:37;0.60;;;0.30;;
41512;SDS011;27244;59.940;30.280;2023-03-01T13:31:07;0.60;;;0.28;;
41512;SDS011;27244;59.940;30.280;2023-03-01T13:33:42;0.60;;;0.30;;
41512;SDS011;27244;59.940;30.280;2023-03-01T13:36:11;0.60;;;0.20;;
41512;SDS011;27244;59.940;30.280;2023-03-01T13:39:02;0.60;;;0.30;;
41512;SDS011;27244;59.940;30.280;2023-03-01T13:41:51;0.40;;;0.30;;
41512;SDS011;27244;59.940;30.280;2023-03-01T13:44:21;0.32;;;0.20;;
41512;SDS011;27244;59.940;30.280;2023-03-01T13:46:53;0.55;;;0.30;;
41512;SDS011;27244;59.940;30.280;2023-03-01T13:49:23;0.57;;;0.25;;
41512;SDS011;27244;59.940;30.280;2023-03-01T13:51:54;0.80;;;0.30;;
41512;SDS011;27244;59.940;30.280;2023-03-01T13:54:26;0.40;;;0.30;;
41512;SDS011;27244;59.940;30.280;2023-03-01T13:56:57;0.30;;;0.20;;
41512;SDS011;27244;59.940;30.280;2023-03-01T13:59:26;0.30;;;0.30;;
41512;SDS011;27244;59.940;30.280;2023-03-01T14:01:56;0.50;;;0.20;;
41512;SDS011;27244;59.940;30.280;2023-03-01T14:04:25;1.85;;;0.22;;
41512;SDS011;27244;59.940;30.280;2023-03-01T14:07:08;0.35;;;0.28;;
41512;SDS011;27244;59.940;30.280;2023-03-01T14:09:36;0.70;;;0.20;;
41512;SDS011;27244;59.940;30.280;2023-03-01T14:12:21;0.30;;;0.15;;
41512;SDS011;27244;59.940;30.280;2023-03-01T14:15:13;0.80;;;0.20;;
41512;SDS011;27244;59.940;30.280;2023-03-01T14:17:59;0.65;;;0.35;;
41512;SDS011;27244;59.940;30.280;2023-03-01T14:20:31;1.73;;;0.25;;
41512;SDS011;27244;59.940;30.280;2023-03-01T14:23:09;0.60;;;0.30;;
41512;SDS011;27244;59.940;30.280;2023-03-01T14:25:45;0.30;;;0.20;;
41512;SDS011;27244;59.940;30.280;2023-03-01T14:28:16;1.05;;;0.43;;
41512;SDS011;27244;59.940;30.280;2023-03-01T14:30:48;0.20;;;0.20;;
41512;SDS011;27244;59.940;30.280;2023-03-01T14:33:21;0.55;;;0.20;;
41512;SDS011;27244;59.940;30.280;2023-03-01T14:35:56;0.77;;;0.30;;
41512;SDS011;27244;59.940;30.280;2023-03-01T14:41:14;0.65;;;0.30;;
41512;SDS011;27244;59.940;30.280;2023-03-01T14:43:43;2.05;;;0.25;;
41512;SDS011;27244;59.940;30.280;2023-03-01T14:46:21;0.47;;;0.30;;
41512;SDS011;27244;59.940;30.280;2023-03-01T14:48:51;0.55;;;0.20;;
41512;SDS011;27244;59.940;30.280;2023-03-01T14:51:20;0.35;;;0.20;;
41512;SDS011;27244;59.940;30.280;2023-03-01T14:53:47;0.40;;;0.20;;
41512;SDS011;27244;59.940;30.280;2023-03-01T14:56:16;1.63;;;0.22;;
41512;SDS011;27244;59.940;30.280;2023-03-01T14:58:44;0.30;;;0.20;;
41512;SDS011;27244;59.940;30.280;2023-03-01T15:01:13;0.40;;;0.20;;
41512;SDS011;27244;59.940;30.280;2023-03-01T15:03:44;0.47;;;0.20;;
41512;SDS011;27244;59.940;30.280;2023-03-01T15:06:14;2.15;;;0.30;;
41512;SDS011;27244;59.940;30.280;2023-03-01T15:08:44;0.17;;;0.10;;
41512;SDS011;27244;59.940;30.280;2023-03-01T15:11:18;0.50;;;0.20;;
41512;SDS011;27244;59.940;30.280;2023-03-01T15:13:49;0.30;;;0.20;;
41512;SDS011;27244;59.940;30.280;2023-03-01T15:16:18;1.30;;;0.32;;
41512;SDS011;27244;59.940;30.280;2023-03-01T15:18:50;0.40;;;0.30;;